This is the latest recevied weather packets stored in our database for station/object W7TRD. If no packets are shown the sender has not sent any weather packets the latest 10 day(s).
| Time | Temp. | Humidity | Pressure | Rain* | Wind** | Luminosity | Snow |
|---|---|---|---|---|---|---|---|
| 1777602460 | 25° C | 35% | 1014.6 hPa | 0 mm | - | 23 W/m² | - |
| 1777602156 | 26.11° C | 35% | 1014.7 hPa | 0 mm | - | 27 W/m² | - |
| 1777601852 | 26.67° C | 33% | 1014.3 hPa | 0 mm | - | 35 W/m² | - |
| 1777586671 | 28.89° C | 31% | 1016.9 hPa | 0 mm | - | 637 W/m² | - |
| 1777586066 | 27.78° C | 32% | 1016.8 hPa | 0 mm | - | 748 W/m² | - |
| 1777585155 | 27.78° C | 32% | 1017 hPa | 0 mm | - | 565 W/m² | - |
| 1777584851 | 27.78° C | 33% | 1016.9 hPa | 0 mm | - | 532 W/m² | - |
| 1777584549 | 27.22° C | 31% | 1017.1 hPa | 0 mm | - | 670 W/m² | - |
| 1777584245 | 27.22° C | 34% | 1017.3 hPa | 0 mm | - | 618 W/m² | - |
| 1777583945 | 26.67° C | 34% | 1017.4 hPa | 0 mm | - | 578 W/m² | - |
| 1777583641 | 26.67° C | 32% | 1017.3 hPa | 0 mm | - | 508 W/m² | - |
| 1777582732 | 26.67° C | 33% | 1017.4 hPa | 0 mm | - | 585 W/m² | - |
| 1777582427 | 26.67° C | 33% | 1017.4 hPa | 0 mm | - | 637 W/m² | - |
| 1777581519 | 26.11° C | 33% | 1017.7 hPa | 0 mm | - | 607 W/m² | - |
| 1777580615 | 26.67° C | 34% | 1017.5 hPa | 0 mm | - | 608 W/m² | - |
| 1777579403 | 25.56° C | 38% | 1018.1 hPa | 0 mm | - | 561 W/m² | - |
| 1777578798 | 26.11° C | 40% | 1018 hPa | 0 mm | - | 490 W/m² | - |
| 1777576066 | 23.33° C | 46% | 1018.5 hPa | 0 mm | - | 567 W/m² | - |
| 1777574850 | 22.78° C | 48% | 1018.9 hPa | 0 mm | - | 435 W/m² | - |
| 1777574244 | 23.33° C | 48% | 1018.9 hPa | 0 mm | - | 456 W/m² | - |
| 1777572723 | 22.22° C | 49% | 1019.2 hPa | 0 mm | - | 696 W/m² | - |
| 1777572418 | 21.67° C | 49% | 1019.2 hPa | 0 mm | - | 523 W/m² | - |
| 1777571815 | 21.11° C | 50% | 1019.2 hPa | 0 mm | - | 591 W/m² | - |
| 1777570600 | 19.44° C | 55% | 1019.5 hPa | 0 mm | - | 421 W/m² | - |
| 1777568476 | 17.78° C | 60% | 1019.9 hPa | 0 mm | - | 188 W/m² | - |
* Rain latest hour (hover to see other rain measurements)
** Current wind speed in m/s (hover to see current wind gust speed)